<?xml version="1.0" encoding="UTF-8" standalone="no" ?>
<gpx xmlns="http://www.topografix.com/GPX/1/1" xmlns:xsi="http://www.w3.org/2001/XMLSchema-instance" xsi:schemaLocation="http://www.topografix.com/GPX/1/1 http://www.topografix.com/GPX/1/1/gpx.xsd" version="1.1" creator="VisuGPX - https://www.visugpx.com">
  <metadata>
    <name>Activité Randonnée TwoNav</name>
    <desc><![CDATA[2023-02-12_181626.trk]]></desc>
  </metadata>
  <trk>
    <name><![CDATA[Activité Randonnée TwoNav_1]]></name>
    <trkseg>
      <trkpt lat="48.57101" lon="6.20595">
        <ele>262.6</ele>
        <time>2023-02-12T17:16:28Z</time>
      </trkpt>
      <trkpt lat="48.57101" lon="6.20595">
        <ele>262.6</ele>
        <time>2023-02-12T17:16:28Z</time>
      </trkpt>
      <trkpt lat="48.571" lon="6.20595">
        <ele>262.7</ele>
        <time>2023-02-12T17:16:29Z</time>
      </trkpt>
      <trkpt lat="48.571" lon="6.20597">
        <ele>262.7</ele>
        <time>2023-02-12T17:16:38Z</time>
      </trkpt>
      <trkpt lat="48.571" lon="6.20596">
        <ele>262.7</ele>
        <time>2023-02-12T17:16:40Z</time>
      </trkpt>
      <trkpt lat="48.571" lon="6.20596">
        <ele>262.7</ele>
        <time>2023-02-12T17:16:41Z</time>
      </trkpt>
      <trkpt lat="48.571" lon="6.20596">
        <ele>262.7</ele>
        <time>2023-02-12T17:16:42Z</time>
      </trkpt>
      <trkpt lat="48.571" lon="6.20596">
        <ele>262.7</ele>
        <time>2023-02-12T17:16:43Z</time>
      </trkpt>
      <trkpt lat="48.571" lon="6.20595">
        <ele>262.7</ele>
        <time>2023-02-12T17:16:44Z</time>
      </trkpt>
      <trkpt lat="48.571" lon="6.20595">
        <ele>262.7</ele>
        <time>2023-02-12T17:16:45Z</time>
      </trkpt>
      <trkpt lat="48.571" lon="6.20594">
        <ele>262.7</ele>
        <time>2023-02-12T17:16:54Z</time>
      </trkpt>
      <trkpt lat="48.57104" lon="6.20582">
        <ele>262.9</ele>
        <time>2023-02-12T17:17:25Z</time>
      </trkpt>
      <trkpt lat="48.57106" lon="6.20578">
        <ele>263</ele>
        <time>2023-02-12T17:17:33Z</time>
      </trkpt>
      <trkpt lat="48.57106" lon="6.20578">
        <ele>263</ele>
        <time>2023-02-12T17:17:34Z</time>
      </trkpt>
      <trkpt lat="48.57105" lon="6.20592">
        <ele>263.2</ele>
        <time>2023-02-12T17:17:47Z</time>
      </trkpt>
      <trkpt lat="48.571" lon="6.20604">
        <ele>263.4</ele>
        <time>2023-02-12T17:18:01Z</time>
      </trkpt>
      <trkpt lat="48.571" lon="6.20603">
        <ele>263.4</ele>
        <time>2023-02-12T17:18:04Z</time>
      </trkpt>
      <trkpt lat="48.57107" lon="6.20593">
        <ele>263.6</ele>
        <time>2023-02-12T17:18:19Z</time>
      </trkpt>
      <trkpt lat="48.57104" lon="6.20579">
        <ele>263.8</ele>
        <time>2023-02-12T17:18:26Z</time>
      </trkpt>
      <trkpt lat="48.57109" lon="6.20588">
        <ele>263.9</ele>
        <time>2023-02-12T17:18:53Z</time>
      </trkpt>
      <trkpt lat="48.5711" lon="6.20589">
        <ele>263.9</ele>
        <time>2023-02-12T17:18:54Z</time>
      </trkpt>
      <trkpt lat="48.5711" lon="6.20589">
        <ele>263.9</ele>
        <time>2023-02-12T17:18:58Z</time>
      </trkpt>
      <trkpt lat="48.5711" lon="6.20589">
        <ele>263.9</ele>
        <time>2023-02-12T17:19:01Z</time>
      </trkpt>
      <trkpt lat="48.57111" lon="6.20585">
        <ele>264</ele>
        <time>2023-02-12T17:19:11Z</time>
      </trkpt>
      <trkpt lat="48.57111" lon="6.20585">
        <ele>264</ele>
        <time>2023-02-12T17:19:22Z</time>
      </trkpt>
      <trkpt lat="48.57118" lon="6.20576">
        <ele>264.2</ele>
        <time>2023-02-12T17:19:33Z</time>
      </trkpt>
      <trkpt lat="48.5712" lon="6.20565">
        <ele>264.3</ele>
        <time>2023-02-12T17:19:58Z</time>
      </trkpt>
      <trkpt lat="48.73823" lon="6.25473">
        <ele>212.3</ele>
        <time>2023-02-14T10:47:54Z</time>
      </trkpt>
      <trkpt lat="48.73823" lon="6.25477">
        <ele>212.3</ele>
        <time>2023-02-14T10:47:55Z</time>
      </trkpt>
      <trkpt lat="48.73825" lon="6.2548">
        <ele>212.4</ele>
        <time>2023-02-14T10:48:01Z</time>
      </trkpt>
      <trkpt lat="48.73825" lon="6.25481">
        <ele>212.4</ele>
        <time>2023-02-14T10:48:02Z</time>
      </trkpt>
      <trkpt lat="48.73825" lon="6.25481">
        <ele>212.4</ele>
        <time>2023-02-14T10:48:04Z</time>
      </trkpt>
      <trkpt lat="48.73825" lon="6.2548">
        <ele>212.4</ele>
        <time>2023-02-14T10:48:06Z</time>
      </trkpt>
      <trkpt lat="48.73825" lon="6.25479">
        <ele>212.4</ele>
        <time>2023-02-14T10:48:12Z</time>
      </trkpt>
      <trkpt lat="48.73825" lon="6.25478">
        <ele>212.4</ele>
        <time>2023-02-14T10:48:13Z</time>
      </trkpt>
      <trkpt lat="48.73825" lon="6.25479">
        <ele>212.4</ele>
        <time>2023-02-14T10:48:14Z</time>
      </trkpt>
      <trkpt lat="48.73825" lon="6.25479">
        <ele>212.4</ele>
        <time>2023-02-14T10:48:15Z</time>
      </trkpt>
      <trkpt lat="48.73825" lon="6.25479">
        <ele>212.4</ele>
        <time>2023-02-14T10:48:18Z</time>
      </trkpt>
      <trkpt lat="48.73825" lon="6.25479">
        <ele>212.4</ele>
        <time>2023-02-14T10:48:19Z</time>
      </trkpt>
      <trkpt lat="48.73824" lon="6.25479">
        <ele>212.4</ele>
        <time>2023-02-14T10:48:22Z</time>
      </trkpt>
      <trkpt lat="48.73824" lon="6.25479">
        <ele>212.4</ele>
        <time>2023-02-14T10:48:24Z</time>
      </trkpt>
      <trkpt lat="48.73824" lon="6.25479">
        <ele>212.4</ele>
        <time>2023-02-14T10:48:25Z</time>
      </trkpt>
      <trkpt lat="48.73824" lon="6.25479">
        <ele>212.4</ele>
        <time>2023-02-14T10:48:26Z</time>
      </trkpt>
      <trkpt lat="48.73824" lon="6.25479">
        <ele>212.4</ele>
        <time>2023-02-14T10:48:28Z</time>
      </trkpt>
      <trkpt lat="48.73824" lon="6.25477">
        <ele>212.4</ele>
        <time>2023-02-14T10:49:10Z</time>
      </trkpt>
      <trkpt lat="48.73826" lon="6.25474">
        <ele>212.4</ele>
        <time>2023-02-14T10:49:16Z</time>
      </trkpt>
      <trkpt lat="48.73826" lon="6.25474">
        <ele>212.4</ele>
        <time>2023-02-14T10:49:31Z</time>
      </trkpt>
      <trkpt lat="48.73826" lon="6.25474">
        <ele>212.4</ele>
        <time>2023-02-14T10:49:32Z</time>
      </trkpt>
      <trkpt lat="48.73827" lon="6.25473">
        <ele>212.7</ele>
        <time>2023-02-14T10:49:37Z</time>
      </trkpt>
      <trkpt lat="48.73827" lon="6.25473">
        <ele>212.7</ele>
        <time>2023-02-14T10:49:38Z</time>
      </trkpt>
      <trkpt lat="48.73827" lon="6.25473">
        <ele>212.7</ele>
        <time>2023-02-14T10:49:39Z</time>
      </trkpt>
      <trkpt lat="48.7383" lon="6.2546">
        <ele>212.7</ele>
        <time>2023-02-14T10:49:47Z</time>
      </trkpt>
      <trkpt lat="48.73834" lon="6.25447">
        <ele>212.7</ele>
        <time>2023-02-14T10:49:53Z</time>
      </trkpt>
      <trkpt lat="48.73839" lon="6.25433">
        <ele>212.7</ele>
        <time>2023-02-14T10:50:00Z</time>
      </trkpt>
      <trkpt lat="48.73843" lon="6.25421">
        <ele>212.7</ele>
        <time>2023-02-14T10:50:07Z</time>
      </trkpt>
      <trkpt lat="48.73847" lon="6.25408">
        <ele>212.7</ele>
        <time>2023-02-14T10:50:14Z</time>
      </trkpt>
      <trkpt lat="48.73851" lon="6.25393">
        <ele>212.7</ele>
        <time>2023-02-14T10:50:23Z</time>
      </trkpt>
      <trkpt lat="48.73856" lon="6.25381">
        <ele>212.7</ele>
        <time>2023-02-14T10:50:31Z</time>
      </trkpt>
      <trkpt lat="48.7386" lon="6.25367">
        <ele>212.7</ele>
        <time>2023-02-14T10:50:39Z</time>
      </trkpt>
      <trkpt lat="48.73865" lon="6.25356">
        <ele>212.8</ele>
        <time>2023-02-14T10:50:46Z</time>
      </trkpt>
      <trkpt lat="48.73869" lon="6.25343">
        <ele>212.8</ele>
        <time>2023-02-14T10:50:54Z</time>
      </trkpt>
      <trkpt lat="48.73874" lon="6.25331">
        <ele>212.8</ele>
        <time>2023-02-14T10:51:02Z</time>
      </trkpt>
      <trkpt lat="48.73878" lon="6.25319">
        <ele>212.7</ele>
        <time>2023-02-14T10:51:09Z</time>
      </trkpt>
      <trkpt lat="48.73883" lon="6.25307">
        <ele>212.7</ele>
        <time>2023-02-14T10:51:16Z</time>
      </trkpt>
      <trkpt lat="48.73887" lon="6.25295">
        <ele>212.7</ele>
        <time>2023-02-14T10:51:24Z</time>
      </trkpt>
      <trkpt lat="48.73892" lon="6.25282">
        <ele>212.6</ele>
        <time>2023-02-14T10:51:32Z</time>
      </trkpt>
      <trkpt lat="48.73895" lon="6.25267">
        <ele>212.6</ele>
        <time>2023-02-14T10:51:48Z</time>
      </trkpt>
      <trkpt lat="48.73898" lon="6.25253">
        <ele>212.6</ele>
        <time>2023-02-14T10:51:55Z</time>
      </trkpt>
      <trkpt lat="48.73903" lon="6.2524">
        <ele>212.6</ele>
        <time>2023-02-14T10:52:02Z</time>
      </trkpt>
      <trkpt lat="48.7391" lon="6.25228">
        <ele>212.5</ele>
        <time>2023-02-14T10:52:08Z</time>
      </trkpt>
      <trkpt lat="48.73919" lon="6.25222">
        <ele>212.5</ele>
        <time>2023-02-14T10:52:15Z</time>
      </trkpt>
      <trkpt lat="48.73925" lon="6.25212">
        <ele>212.5</ele>
        <time>2023-02-14T10:52:21Z</time>
      </trkpt>
      <trkpt lat="48.74098" lon="6.22403">
        <ele>202.9</ele>
        <time>2023-02-14T11:31:57Z</time>
      </trkpt>
    </trkseg>
  </trk>
</gpx>